Terminal Aerodrome Forecast
Issued by NWS Northern Indiana

Home | Current Version | Previous Version | Text Only | Print | Product List | Glossary On
Versions: 1 2 3 4 5 6 7 8 9 10 11 12 13 14 15 16 17 18
000
FTUS43 KIWX 010300 AAA
TAFFWA
TAF AMD
KFWA 010314Z 0103/0124 24007KT P6SM OVC014
     FM010400 23005KT 2SM -SN OVC006
     FM010900 08006KT 1SM -SN OVC008
     FM011400 08012KT 1/2SM SN FZFG VV004
     FM011800 08015G25KT 1/2SM SN FZFG BLSN VV004=

USA.gov is the U.S. government's official web portal to all federal, state and local government web resources and services.